Pink Ribbon: National Breast Cancer Awareness Month map of PTG home
PTG - Airport
Location
City:  Polokwane, Limpopo, South Africa
Near (Alt.):Pietersburg
Name:Polokwane International Airport
ICAO:FAPP
IATA:PTG

Details
Type:Airport (Aerodrome, Airfield)
Use:Public/Civil, International (customs port of entry)
Latitude:2350'59"S (-23.849646)
Longitude:2927'23"E (29.456489)
Elevation:4076 ft (1242 m)
Variation:15.71W (WMM2015 magnetic declination)
-0.08 annual change
Runways:2
Longest:8399 × 148 ft (2560 × 45 m), paved

Time
Time Zone:UTC+2
Local Time:

Weather
METAR:FAPP 011000Z 01007KT 9999 FEW025 19/12 Q1018 NOSIG

Related Locations
Nearby:
Farthest:HNM: 12034 mi / 19367 km
Hana, Maui, HI, US

Find:

   beyond  
but within

Other Information
Maps:
NOTAMs:
Links:
Sources:

  
flag of South Africa
flag of Limpopo
  

Airport Diagram

Airport diagram for PTG

Airport diagram PDF from South African CAA

Sectional Chart

Flight Planning
at skyvector.com

Satellite Image

Google Maps Satellite view

 

Copyright © 2004-2016 Karl L. Swartz. All rights reserved.
The Great Circle Mapper name and logo are trademarks of the Great Circle Mapper.
All other trademarks mentioned herein belong to their respective owners.
Please see credits for attibutions and further copyright information.

  Follow gcmap on Facebook Follow gcmap on Twitter Follow gcmap on Google+ GCmap on LinkedIn

hCard Microformat

Geo Microformat